»·PEaware :: N902MR KEMT-KMYF

N902MR :: KEMT-KMYF

FLIGHT INFORMATION

Flight Status: Arrived
Operator: Privately registered:
United States
More flights under this callsign
Pilot: Valentin M. (21016)
Aircraft: CESSNA 172 SKYHAWK
(C172)
More flights by this aircraft type
Origin: KEMT El Monte
United States
Destination: KMYF Montgomery
United States
More flights between these airports :: More routes between these airports
Route: +
File this flight plan on PilotEdge
Remarks:
Altitude:
(Current/Filed)
2,500ft
Speed:
(Current/Filed)
0kts
Departed: 08-Nov-18 07:50 PM
Arrived: 08-Nov-18 08:50 PM
Distance/Time
Traveled:
89nm/1:00
Distance/Time
To Go:
Arrived

Flight Plot

Page will automatically refresh every two minutes.

Flight plan parsing failed; only flown route is shown


Map Options




Map Legend


Flown Route
Filed Route
Departure Airport
Arrival Airport
Navaid (VOR, NDB)
Fix

Horizontal Profiles

Position Reports

Time Latitude Longitude Heading Altitude Ground
Speed
08-Nov-18 19:52 33.755987 -118.218830 115 3468ft 119kts
08-Nov-18 19:53 33.737275 -118.182467 120 3540ft 132kts
08-Nov-18 19:54 33.718803 -118.144414 120 3633ft 131kts
08-Nov-18 19:55 33.700615 -118.107687 102 3670ft 128kts
08-Nov-18 19:56 33.691663 -118.064859 98 3611ft 132kts
08-Nov-18 19:57 33.685091 -118.020885 101 3536ft 133kts
08-Nov-18 19:58 33.669040 -117.980436 129 3447ft 137kts
08-Nov-18 19:59 33.649055 -117.943220 125 3537ft 130kts
08-Nov-18 20:00 33.624571 -117.909854 119 3543ft 134kts
08-Nov-18 20:01 33.596292 -117.879382 131 3510ft 138kts
08-Nov-18 20:02 33.566175 -117.851694 136 3556ft 135kts
08-Nov-18 20:03 33.538238 -117.822026 110 3428ft 129kts
08-Nov-18 20:04 33.517196 -117.787427 124 3484ft 131kts
08-Nov-18 20:05 33.493067 -117.758202 130 4034ft 115kts
08-Nov-18 20:06 33.473175 -117.739307 119 5209ft 80kts
08-Nov-18 20:07 33.460741 -117.716407 120 6055ft 85kts
08-Nov-18 20:08 33.442487 -117.696834 137 6889ft 88kts
08-Nov-18 20:09 33.424984 -117.675345 140 7478ft 106kts
08-Nov-18 20:10 33.400896 -117.648303 126 7618ft 129kts
08-Nov-18 20:11 33.376168 -117.615346 133 7558ft 132kts
08-Nov-18 20:12 33.349600 -117.584431 127 7538ft 131kts
08-Nov-18 20:13 33.326452 -117.550310 128 7512ft 133kts
08-Nov-18 20:14 33.303165 -117.515707 122 7467ft 133kts
08-Nov-18 20:15 33.282970 -117.479086 125 7466ft 135kts
08-Nov-18 20:16 33.258778 -117.445498 129 7490ft 133kts
08-Nov-18 20:17 33.232791 -117.415241 144 7070ft 129kts
08-Nov-18 20:18 33.204520 -117.399332 160 6246ft 101kts
08-Nov-18 20:19 33.178016 -117.390851 166 5506ft 97kts
08-Nov-18 20:20 33.151517 -117.382953 163 4720ft 99kts
08-Nov-18 20:21 33.125286 -117.373479 167 3913ft 99kts
08-Nov-18 20:22 33.100582 -117.360232 147 3106ft 97kts
08-Nov-18 20:23 33.080314 -117.339114 139 2382ft 96kts
08-Nov-18 20:24 33.059131 -117.319665 147 1788ft 95kts
08-Nov-18 20:25 33.034619 -117.308282 159 1230ft 93kts
08-Nov-18 20:26 33.013096 -117.295460 155 1056ft 81kts
08-Nov-18 20:27 32.989980 -117.284103 164 1089ft 108kts
08-Nov-18 20:28 32.959245 -117.276729 170 1214ft 107kts
08-Nov-18 20:29 32.927987 -117.272162 176 1065ft 110kts
08-Nov-18 20:30 32.898445 -117.268273 174 1106ft 108kts
08-Nov-18 20:31 32.868227 -117.269929 203 1064ft 108kts
08-Nov-18 20:32 32.840892 -117.282083 191 1015ft 103kts
08-Nov-18 20:33 32.813008 -117.273797 148 798ft 116kts
08-Nov-18 20:34 32.783448 -117.259111 168 494ft 107kts
08-Nov-18 20:35 32.753861 -117.256041 186 579ft 107kts
08-Nov-18 20:36 32.723637 -117.259046 180 573ft 108kts
08-Nov-18 20:37 32.694284 -117.256551 174 550ft 105kts
08-Nov-18 20:38 32.666528 -117.246758 134 517ft 103kts
08-Nov-18 20:39 32.681412 -117.230013 7 498ft 99kts
08-Nov-18 20:40 32.707457 -117.222271 32 491ft 99kts
08-Nov-18 20:41 32.716755 -117.194149 108 690ft 102kts
08-Nov-18 20:42 32.696217 -117.168399 147 995ft 111kts
08-Nov-18 20:43 32.704987 -117.167235 315 865ft 106kts
08-Nov-18 20:44 32.730404 -117.182338 329 990ft 101kts
08-Nov-18 20:45 32.752864 -117.202377 320 1051ft 105kts
08-Nov-18 20:46 32.775835 -117.222885 324 1121ft 101kts
08-Nov-18 20:47 32.800180 -117.236964 340 1357ft 88kts
08-Nov-18 20:48 32.814183 -117.222660 88 1586ft 103kts
08-Nov-18 20:49 32.808988 -117.188171 103 1512ft 99kts
08-Nov-18 20:50 32.805265 -117.157590 101 1432ft 86kts
08-Nov-18 20:51 32.801153 -117.131566 47 1143ft 64kts
08-Nov-18 20:52 32.812743 -117.134614 296 467ft 50kts
08-Nov-18 20:53 32.813493 -117.138400 164 416ft 0kts
08-Nov-18 20:54 32.812268 -117.135536 142 416ft 20kts
08-Nov-18 20:55 32.811346 -117.135441 1 416ft 0kts

Navigation Log

Ident Type
Flight plan parsing failed, navigation log unavailable